You are listening to:
KJFK Tower - New York, New York, United States

KJFK 250251Z 08006KT 10SM BKN043 BKN095 BKN250 19/09 A3034 RMK AO2 SLP273 T01890094 50001

If stream doesn't start automatically press the play button
If stream stops then reload player then press play